Terminal Aerodrome Forecast
Issued by NWS Duluth, MN

Home | Current Version | Previous Version | Text Only | Print | Product List | Glossary On
Versions: 1 2 3 4 5 6 7 8 9 10 11 12 13 14 15 16
657
FTUS43 KDLH 191736
TAFINL
TAF
KINL 191736Z 1918/2018 21009KT P6SM FEW250
     FM191900 20010G16KT P6SM FEW250
     FM200000 20010KT P6SM FEW250
     FM200800 18006KT P6SM FEW250
     FM201600 16009KT P6SM SCT250=

USA.gov is the U.S. government's official web portal to all federal, state and local government web resources and services.